Madawaska, ME (04756)

2:14 AM EST on December 04, 2016 (GMT -0500)
Dad's Station | | Change Station

Elev 807 ft 47.35 °N, 68.32 °W | Updated 3 seconds ago

Overcast
Overcast
24.8 °F
Feels Like 25 °F
N
0.0
Wind Variable Wind from West
Gusts 0.0 mph

Today
High -- | Low -- °F
--% Chance of Precip.
Yesterday
High -- | Low -- °F
Precip. -- in
Pressure 29.96 in
Visibility 10.0 miles
Clouds Mostly Cloudy 1500 ft
Overcast 2100 ft
Windchill 25 °F
Dew Point 18 °F
Humidity 74%
Rainfall 0.00 in
Snow Depth Not available.
7:03 AM 3:43 PM
Waxing Crescent, 20% visible
SPECI KFVE 040706Z AUTO 33011G21KT 10SM BKN015 OVC021 M05/M08 A2996 RMK AO2 T10501078
Pressure 29.96 in
Visibility 10.0 miles
Clouds Mostly Cloudy 1500 ft
Overcast 2100 ft
Windchill 25 °F
Dew Point 18 °F
Humidity 74%
Rainfall 0.00 in
Snow Depth Not available.
7:03 AM 3:43 PM
Waxing Crescent, 20% visible
SPECI KFVE 040706Z AUTO 33011G21KT 10SM BKN015 OVC021 M05/M08 A2996 RMK AO2 T10501078

10-Day Weather Forecast

Almanac

Astronomy

Dec. 04, 2016 Rise Set
Actual Time
Civil Twilight
Nautical Twilight
Astronomical Twilight
Moon
Length of Visible Light
Length of Day
Tomorrow will be .
, % of the Moon is Illuminated

Today's Extremes

State Highs State Lows

Community

WunderPhotos

Upload Photos

1,955,587 photos uploaded!

WunderBlog® & News

Nearby

Air Quality

  Air Quality AQ Index Pollutant
Not available.

Snow Depth

Station Depth Elevation

Earthquake Activity

City Distance Mag. Time & Date
Minimum magnitude displayed is 2.5.

Coastal Water Temperatures

Place Temperature

Stations

Nearby Weather Stations

Station Location Temp. Windchill Dew Point Humidity Wind Precip. Elev Updated Type
                   

Watches & Warnings

There are currently no watches in effect.